Pagina principale
METAR-TAF:

METAR-TAF

Aeroporti :

Paro, Grecia

latitudine: 37-01-15N, longitudine: 025-06-46E, altezza: 38 m

Osservazione

Il bollettino è stato emesso 28 minuti fa, alle 07:20 UTC
Vento 20 kt da nord con raffiche fino a 30 kt
Temperature 28°C
Umidità 51%
Pressione 1012 hPa
Visibilità 10 km o più
nessuna nube inferiore a 1500 m e nessun cumulonembo

METAR: LGPA 180720Z 36020G30KT CAVOK 28/17 Q1012

Ora: 10:48 (07:48 UTC)


TAF: mancante

Osservazioni e previsioni meteorologiche di più di 4000 aeroporti (messaggi METAR e TAF).

Le stazioni disponibili sono rappresentate dai dischi gialli e rossi sulla carta.

Puntare il mouse per vedere il nome della stazione.

Clicca sopra per visualizzare le osservazioni e previsioni meteorologiche.

Per cambiare la mappa : fare clic sui pulsanti verdi con una croce nera per ingrandire, il pulsante verde con un trattino per diminuire, o sulla freccia verde per le mappe adiacenti.


METAR-TAF: